createdAt,value
2022-11-14T00:00:53.134Z,49.10
2022-11-14T00:01:53.314Z,52.80
2022-11-14T00:02:53.526Z,49.80
2022-11-14T00:03:53.676Z,51.10
2022-11-14T00:04:53.847Z,53.60
2022-11-14T00:05:54.022Z,54.10
2022-11-14T00:06:54.253Z,53.10
2022-11-14T00:07:54.373Z,49.20
2022-11-14T00:08:54.562Z,50.10
2022-11-14T00:09:54.743Z,52.70
2022-11-14T00:10:54.911Z,53.10
2022-11-14T00:11:55.101Z,49.10
2022-11-14T00:12:55.273Z,50.50
2022-11-14T00:13:55.463Z,54.40
2022-11-14T00:14:55.603Z,52.80
2022-11-14T00:15:55.783Z,56.20
2022-11-14T00:16:55.951Z,48.10
2022-11-14T00:17:56.130Z,56.00
2022-11-14T00:18:56.321Z,52.50
2022-11-14T00:19:56.501Z,54.80
2022-11-14T00:20:56.687Z,57.90
2022-11-14T00:21:56.871Z,53.20
2022-11-14T00:22:57.041Z,53.20
2022-11-14T00:23:57.279Z,50.80
2022-11-14T00:24:57.391Z,58.00
2022-11-14T00:25:57.561Z,57.80
2022-11-14T00:26:57.748Z,56.00
2022-11-14T00:27:57.922Z,56.90
2022-11-14T00:28:58.110Z,53.20
2022-11-14T00:29:58.259Z,58.60
2022-11-14T00:30:58.438Z,50.50
2022-11-14T00:31:58.623Z,54.40
2022-11-14T00:32:58.790Z,58.90
2022-11-14T00:33:58.979Z,59.40
2022-11-14T00:34:59.134Z,55.20
2022-11-14T00:35:59.309Z,58.20
2022-11-14T00:36:59.501Z,57.60
2022-11-14T00:37:59.669Z,56.30
2022-11-14T00:38:59.867Z,60.20
2022-11-14T00:40:00.061Z,56.00
2022-11-14T00:41:00.228Z,57.40
2022-11-14T00:42:00.410Z,65.40
2022-11-14T00:43:00.593Z,62.70
2022-11-14T00:44:00.788Z,58.60
2022-11-14T00:45:00.928Z,56.90
2022-11-14T00:46:01.110Z,57.60
2022-11-14T00:47:01.289Z,65.60
2022-11-14T00:48:01.469Z,60.90
2022-11-14T00:49:01.658Z,55.80
2022-11-14T00:50:01.815Z,61.10
2022-11-14T00:51:02.003Z,64.20
2022-11-14T00:52:02.173Z,65.10
2022-11-14T00:53:02.340Z,62.50
2022-11-14T00:54:02.539Z,54.70
2022-11-14T00:55:02.707Z,65.00
2022-11-14T00:56:02.885Z,67.60
2022-11-14T00:57:03.074Z,61.70
2022-11-14T00:58:03.247Z,66.60
2022-11-14T00:59:03.440Z,58.30
2022-11-14T01:00:03.587Z,59.20
2022-11-14T01:01:03.828Z,68.00
2022-11-14T01:02:03.947Z,62.00
2022-11-14T01:03:04.131Z,71.70
2022-11-14T01:04:04.309Z,63.20
2022-11-14T01:05:04.480Z,56.80
2022-11-14T01:06:04.656Z,66.20
2022-11-14T01:07:04.836Z,61.50
2022-11-14T01:08:05.026Z,62.10
2022-11-14T01:09:05.256Z,64.90
2022-11-14T01:10:05.356Z,62.50
2022-11-14T01:11:05.536Z,63.80
2022-11-14T01:12:05.721Z,68.20
2022-11-14T01:13:05.903Z,66.60
2022-11-14T01:14:06.076Z,60.30
2022-11-14T01:15:06.256Z,63.50
2022-11-14T01:16:06.426Z,64.70
2022-11-14T01:17:06.607Z,62.60
2022-11-14T01:18:06.806Z,59.50
2022-11-14T01:19:07.546Z,62.90
2022-11-14T01:20:07.114Z,62.40
2022-11-14T01:21:07.286Z,68.40
2022-11-14T01:22:07.483Z,63.70
2022-11-14T01:23:07.624Z,61.40
2022-11-14T01:24:07.803Z,60.20
2022-11-14T01:25:07.975Z,68.60
2022-11-14T01:26:08.147Z,63.00
2022-11-14T01:27:08.344Z,58.00
2022-11-14T01:28:08.484Z,64.50
2022-11-14T01:29:08.657Z,62.00
2022-11-14T01:30:08.836Z,63.40
2022-11-14T01:31:09.021Z,64.80
2022-11-14T01:32:09.195Z,61.90
2022-11-14T01:33:09.384Z,59.10
2022-11-14T01:34:09.564Z,60.90
2022-11-14T01:35:09.754Z,58.20
2022-11-14T01:36:09.915Z,62.80
2022-11-14T01:37:10.113Z,67.00
2022-11-14T01:38:10.291Z,62.60
2022-11-14T01:39:10.468Z,62.30
2022-11-14T01:40:10.653Z,59.10
2022-11-14T01:41:10.833Z,63.30
2022-11-14T01:42:11.014Z,67.20
2022-11-14T01:43:11.248Z,68.10
2022-11-14T01:44:11.385Z,65.00
2022-11-14T01:45:11.578Z,59.80
2022-11-14T01:46:11.754Z,62.00
2022-11-14T01:47:11.952Z,66.70
2022-11-14T01:48:12.093Z,62.00
2022-11-14T01:49:12.283Z,61.50
2022-11-14T01:50:12.434Z,59.00
2022-11-14T01:51:12.613Z,60.70
2022-11-14T01:52:12.803Z,64.90
2022-11-14T01:53:12.955Z,60.30
2022-11-14T01:54:13.133Z,64.40
2022-11-14T01:55:13.314Z,57.80
2022-11-14T01:56:13.501Z,60.50
2022-11-14T01:57:13.702Z,57.80
2022-11-14T01:58:13.853Z,66.10
2022-11-14T01:59:14.036Z,61.10
2022-11-14T02:00:14.233Z,64.00
2022-11-14T02:01:14.452Z,64.00
2022-11-14T02:02:14.603Z,56.20
2022-11-14T02:03:14.757Z,64.50
2022-11-14T02:04:15.330Z,76.00
2022-11-14T02:05:15.105Z,67.00
2022-11-14T02:06:15.284Z,63.20
2022-11-14T02:07:15.504Z,59.70
2022-11-14T02:08:15.662Z,67.00
2022-11-14T02:09:15.832Z,66.60
2022-11-14T02:10:16.013Z,65.00
2022-11-14T02:11:16.191Z,64.20
2022-11-14T02:12:16.387Z,68.70
2022-11-14T02:13:16.523Z,62.20
2022-11-14T02:14:16.705Z,67.80
2022-11-14T02:15:16.880Z,69.70
2022-11-14T02:16:17.070Z,68.90
2022-11-14T02:17:32.676Z,67.30
2022-11-14T02:18:18.432Z,67.10
2022-11-14T02:19:17.605Z,64.60
2022-11-14T02:20:17.783Z,63.70
2022-11-14T02:21:17.962Z,66.80
2022-11-14T02:22:18.160Z,65.40
2022-11-14T02:23:18.310Z,72.90
2022-11-14T02:24:18.492Z,62.40
2022-11-14T02:25:18.670Z,68.40
2022-11-14T02:26:18.860Z,70.70
2022-11-14T02:27:19.062Z,66.70
2022-11-14T02:28:19.210Z,74.20
2022-11-14T02:29:19.391Z,68.50
2022-11-14T02:30:19.581Z,67.00
2022-11-14T02:31:19.761Z,64.40
2022-11-14T02:32:19.963Z,63.30
2022-11-14T02:33:20.112Z,69.80
2022-11-14T02:34:20.345Z,64.10
2022-11-14T02:35:20.469Z,63.90
2022-11-14T02:36:20.649Z,69.20
2022-11-14T02:37:20.850Z,67.80
2022-11-14T02:38:20.998Z,68.40
2022-11-14T02:39:21.180Z,71.60
2022-11-14T02:40:21.368Z,68.40
2022-11-14T02:41:21.549Z,71.00
2022-11-14T02:42:21.750Z,69.70
2022-11-14T02:43:21.901Z,69.30
2022-11-14T02:44:22.100Z,67.80
2022-11-14T02:45:22.239Z,65.80
2022-11-14T02:46:22.420Z,67.30
2022-11-14T02:47:22.627Z,68.70
2022-11-14T02:48:22.778Z,70.40
2022-11-14T02:49:22.959Z,69.10
2022-11-14T02:50:23.149Z,68.80
2022-11-14T02:51:23.370Z,69.80
2022-11-14T02:52:23.612Z,68.70
2022-11-14T02:53:23.670Z,70.60
2022-11-14T02:54:23.818Z,66.80
2022-11-14T02:55:24.008Z,70.60
2022-11-14T02:56:24.190Z,71.10
2022-11-14T02:57:24.437Z,70.50
2022-11-14T02:58:24.559Z,65.60
2022-11-14T02:59:24.749Z,70.00
2022-11-14T03:00:24.974Z,65.90
2022-11-14T03:01:25.100Z,63.80
2022-11-14T03:02:25.248Z,72.20
2022-11-14T03:03:25.398Z,69.60
2022-11-14T03:04:25.588Z,73.30
2022-11-14T03:05:25.777Z,66.90
2022-11-14T03:06:25.959Z,70.30
2022-11-14T03:07:26.231Z,66.40
2022-11-14T03:08:26.449Z,73.00
2022-11-14T03:09:26.487Z,67.60
2022-11-14T03:10:26.668Z,72.00
2022-11-14T03:11:26.847Z,71.80
2022-11-14T03:12:27.049Z,72.00
2022-11-14T03:13:27.198Z,74.20
2022-11-14T03:14:27.380Z,76.60
2022-11-14T03:15:27.566Z,73.80
2022-11-14T03:16:27.767Z,72.90
2022-11-14T03:17:27.925Z,68.60
2022-11-14T03:18:28.529Z,72.10
2022-11-14T03:19:28.286Z,75.50
2022-11-14T03:20:28.473Z,70.20
2022-11-14T03:21:28.666Z,68.60
2022-11-14T03:22:28.814Z,63.70
2022-11-14T03:23:28.997Z,66.80
2022-11-14T03:24:29.186Z,66.00
2022-11-14T03:25:29.377Z,64.80
2022-11-14T03:26:29.557Z,68.20
2022-11-14T03:27:29.716Z,69.20
2022-11-14T03:28:30.254Z,67.50
2022-11-14T03:29:30.088Z,69.00
2022-11-14T03:30:30.265Z,71.50
2022-11-14T03:31:30.470Z,64.00
2022-11-14T03:32:30.615Z,67.70
2022-11-14T03:33:30.805Z,62.50
2022-11-14T03:34:30.989Z,65.20
2022-11-14T03:35:31.166Z,72.70
2022-11-14T03:36:31.369Z,68.60
2022-11-14T03:37:31.517Z,72.80
2022-11-14T03:38:31.993Z,66.50
2022-11-14T03:39:31.958Z,63.30
2022-11-14T03:40:32.048Z,69.20
2022-11-14T03:41:32.245Z,67.90
2022-11-14T03:42:32.405Z,74.70
2022-11-14T03:43:32.567Z,64.60
2022-11-14T03:44:32.716Z,65.40
2022-11-14T03:45:32.905Z,71.30
2022-11-14T03:46:33.105Z,72.00
2022-11-14T03:47:33.253Z,71.90
2022-11-14T03:48:33.666Z,71.90
2022-11-14T03:49:33.621Z,66.00
2022-11-14T03:50:33.799Z,68.90
2022-11-14T03:51:33.995Z,68.10
2022-11-14T03:52:34.150Z,67.70
2022-11-14T03:53:34.358Z,65.00
2022-11-14T03:54:34.507Z,64.70
2022-11-14T03:55:34.699Z,65.30
2022-11-14T03:56:34.889Z,67.20
2022-11-14T03:57:35.076Z,70.50
2022-11-14T03:58:35.256Z,64.10
2022-11-14T03:59:35.444Z,72.90
2022-11-14T04:00:35.645Z,63.40
2022-11-14T04:01:35.822Z,63.60
2022-11-14T04:02:35.965Z,66.10
2022-11-14T04:03:36.155Z,69.30
2022-11-14T04:04:36.335Z,66.10
2022-11-14T04:05:36.522Z,62.60
2022-11-14T04:06:36.725Z,66.50
2022-11-14T04:07:36.879Z,66.10
2022-11-14T04:08:37.060Z,67.50
2022-11-14T04:09:37.275Z,61.00
2022-11-14T04:10:37.439Z,68.70
2022-11-14T04:11:37.594Z,63.20
2022-11-14T04:12:37.751Z,71.20
2022-11-14T04:13:37.937Z,66.10
2022-11-14T04:14:38.127Z,64.10
2022-11-14T04:15:38.315Z,58.90
2022-11-14T04:16:38.525Z,70.20
2022-11-14T04:17:40.082Z,68.50
2022-11-14T04:18:38.849Z,62.80
2022-11-14T04:19:39.003Z,61.60
2022-11-14T04:20:39.184Z,64.60
2022-11-14T04:21:39.367Z,67.00
2022-11-14T04:22:39.506Z,63.70
2022-11-14T04:23:39.684Z,62.40
2022-11-14T04:24:39.865Z,62.20
2022-11-14T04:25:40.055Z,66.00
2022-11-14T04:26:40.264Z,64.30
2022-11-14T04:27:40.442Z,65.00
2022-11-14T04:28:40.585Z,67.10
2022-11-14T04:29:40.772Z,63.00
2022-11-14T04:30:40.954Z,63.50
2022-11-14T04:31:41.155Z,67.00
2022-11-14T04:32:41.313Z,66.90
2022-11-14T04:33:41.472Z,70.50
2022-11-14T04:34:41.650Z,63.30
2022-11-14T04:35:41.843Z,65.80
2022-11-14T04:36:42.012Z,67.20
2022-11-14T04:37:42.164Z,67.90
2022-11-14T04:38:42.325Z,73.40
2022-11-14T04:39:42.511Z,64.00
2022-11-14T04:40:42.692Z,71.40
2022-11-14T04:41:42.899Z,63.30
2022-11-14T04:42:43.052Z,65.80
2022-11-14T04:43:48.057Z,65.70
2022-11-14T04:44:44.438Z,68.20
2022-11-14T04:45:43.562Z,65.50
2022-11-14T04:46:43.762Z,65.20
2022-11-14T04:47:43.914Z,72.60
2022-11-14T04:48:44.091Z,72.90
2022-11-14T04:49:44.284Z,65.10
2022-11-14T04:50:44.432Z,73.80
2022-11-14T04:51:44.651Z,67.90
2022-11-14T04:52:44.792Z,69.00
2022-11-14T04:53:44.983Z,71.90
2022-11-14T04:54:45.131Z,68.70
2022-11-14T04:55:45.335Z,68.70
2022-11-14T04:56:45.491Z,72.00
2022-11-14T04:57:45.642Z,70.30
2022-11-14T04:58:45.832Z,67.30
2022-11-14T04:59:46.012Z,71.40
2022-11-14T05:00:46.211Z,70.70
2022-11-14T05:01:46.424Z,71.70
2022-11-14T05:02:46.532Z,75.80
2022-11-14T05:03:46.730Z,73.30
2022-11-14T05:04:46.901Z,64.20
2022-11-14T05:05:47.101Z,70.00
2022-11-14T05:06:47.283Z,73.60
2022-11-14T05:07:47.451Z,78.20
2022-11-14T05:08:47.600Z,72.50
2022-11-14T05:09:47.791Z,79.70
2022-11-14T05:10:47.994Z,70.90
2022-11-14T05:11:48.169Z,73.40
2022-11-14T05:12:48.325Z,71.00
2022-11-14T05:13:48.511Z,69.40
2022-11-14T05:14:48.697Z,67.70
2022-11-14T05:15:48.871Z,72.20
2022-11-14T05:16:49.019Z,72.40
2022-11-14T05:17:49.217Z,75.80
2022-11-14T05:18:49.392Z,76.30
2022-11-14T05:19:49.529Z,70.50
2022-11-14T05:20:49.729Z,69.10
2022-11-14T05:21:49.897Z,76.80
2022-11-14T05:22:50.059Z,71.40
2022-11-14T05:23:50.250Z,76.90
2022-11-14T05:24:50.440Z,73.00
2022-11-14T05:25:53.570Z,71.30
2022-11-14T05:26:51.779Z,67.30
2022-11-14T05:27:50.959Z,69.10
2022-11-14T05:28:51.149Z,74.70
2022-11-14T05:29:51.338Z,68.00
2022-11-14T05:30:51.547Z,71.40
2022-11-14T05:31:51.689Z,79.20
2022-11-14T05:32:51.887Z,73.60
2022-11-14T05:33:52.039Z,70.20
2022-11-14T05:34:52.211Z,80.50
2022-11-14T05:35:52.409Z,75.20
2022-11-14T05:36:52.570Z,73.50
2022-11-14T05:37:57.405Z,82.10
2022-11-14T05:38:53.889Z,74.10
2022-11-14T05:39:53.068Z,73.90
2022-11-14T05:40:53.247Z,75.30
2022-11-14T05:41:53.411Z,76.40
2022-11-14T05:42:53.579Z,71.20
2022-11-14T05:43:53.777Z,71.20
2022-11-14T05:44:53.921Z,74.50
2022-11-14T05:45:54.128Z,75.80
2022-11-14T05:46:54.281Z,77.80
2022-11-14T05:47:54.468Z,76.90
2022-11-14T05:48:54.658Z,84.00
2022-11-14T05:49:54.833Z,75.00
2022-11-14T05:50:54.991Z,75.00
2022-11-14T05:51:55.688Z,78.30
2022-11-14T05:52:55.316Z,75.70
2022-11-14T05:53:55.520Z,82.40
2022-11-14T05:54:55.657Z,81.60
2022-11-14T05:55:55.867Z,73.20
2022-11-14T05:56:56.017Z,72.00
2022-11-14T05:57:56.198Z,73.20
2022-11-14T05:58:56.380Z,78.10
2022-11-14T05:59:56.557Z,75.90
2022-11-14T06:00:56.776Z,77.40
2022-11-14T06:01:57.005Z,69.70
2022-11-14T06:02:57.071Z,73.50
2022-11-14T06:03:57.256Z,81.00
2022-11-14T06:04:57.407Z,77.40
2022-11-14T06:05:57.597Z,74.50
2022-11-14T06:06:57.795Z,77.90
2022-11-14T06:07:57.937Z,82.40
2022-11-14T06:08:58.107Z,85.40
2022-11-14T06:09:58.279Z,84.30
2022-11-14T06:10:58.507Z,76.80
2022-11-14T06:11:58.646Z,79.10
2022-11-14T06:12:58.936Z,81.30
2022-11-14T06:13:59.003Z,74.10
2022-11-14T06:14:59.177Z,78.10
2022-11-14T06:15:59.357Z,78.30
2022-11-14T06:16:59.541Z,76.60
2022-11-14T06:17:59.716Z,80.40
2022-11-14T06:18:59.885Z,71.80
2022-11-14T06:20:00.077Z,81.70
2022-11-14T06:21:00.284Z,77.10
2022-11-14T06:22:00.426Z,74.90
2022-11-14T06:23:00.576Z,80.20
2022-11-14T06:24:00.766Z,73.20
2022-11-14T06:25:00.999Z,79.00
2022-11-14T06:26:01.104Z,90.20
2022-11-14T06:27:01.255Z,83.10
2022-11-14T06:28:01.433Z,69.80
2022-11-14T06:29:01.597Z,85.40
2022-11-14T06:30:01.777Z,74.10
2022-11-14T06:31:01.945Z,77.60
2022-11-14T06:32:02.095Z,86.40
2022-11-14T06:33:02.265Z,72.60
2022-11-14T06:34:02.434Z,79.10
2022-11-14T06:35:02.595Z,76.10
2022-11-14T06:36:02.788Z,73.90
2022-11-14T06:37:02.954Z,73.10
2022-11-14T06:38:03.119Z,82.10
2022-11-14T06:39:03.290Z,77.00
2022-11-14T06:40:03.482Z,79.10
2022-11-14T06:41:03.655Z,81.40
2022-11-14T06:42:03.804Z,77.30
2022-11-14T06:43:03.965Z,77.40
2022-11-14T06:44:04.144Z,78.50
2022-11-14T06:45:04.304Z,81.50
2022-11-14T06:46:04.494Z,79.00
2022-11-14T06:47:04.673Z,73.60
2022-11-14T06:48:04.834Z,81.50
2022-11-14T06:49:04.993Z,74.90
2022-11-14T06:50:05.164Z,73.50
2022-11-14T06:51:05.338Z,80.40
2022-11-14T06:52:05.507Z,78.20
2022-11-14T06:53:05.678Z,82.10
2022-11-14T06:54:05.842Z,87.00
2022-11-14T06:55:06.012Z,77.40
2022-11-14T06:56:06.204Z,71.10
2022-11-14T06:57:06.345Z,81.10
2022-11-14T06:58:06.551Z,74.20
2022-11-14T06:59:06.672Z,82.30
2022-11-14T07:00:06.860Z,77.20
2022-11-14T07:01:07.079Z,86.30
2022-11-14T07:02:07.238Z,86.20
2022-11-14T07:03:07.486Z,82.60
2022-11-14T07:04:07.562Z,83.50
2022-11-14T07:05:07.755Z,94.40
2022-11-14T07:06:08.011Z,75.40
2022-11-14T07:07:08.158Z,83.30
2022-11-14T07:08:08.274Z,80.00
2022-11-14T07:09:08.458Z,85.20
2022-11-14T07:10:08.611Z,78.90
2022-11-14T07:11:08.802Z,78.10
2022-11-14T07:12:08.970Z,70.80
2022-11-14T07:13:09.143Z,74.90
2022-11-14T07:14:09.312Z,83.10
2022-11-14T07:15:09.482Z,87.00
2022-11-14T07:16:09.663Z,76.80
2022-11-14T07:17:09.831Z,82.80
2022-11-14T07:18:10.023Z,87.70
2022-11-14T07:19:10.183Z,72.30
2022-11-14T07:20:10.351Z,81.20
2022-11-14T07:21:10.542Z,76.80
2022-11-14T07:22:10.710Z,74.80
2022-11-14T07:23:10.880Z,76.40
2022-11-14T07:24:11.040Z,75.80
2022-11-14T07:25:11.213Z,76.00
2022-11-14T07:26:11.416Z,72.90
2022-11-14T07:27:11.570Z,71.40
2022-11-14T07:28:11.760Z,80.60
2022-11-14T07:29:11.941Z,78.90
2022-11-14T07:30:12.111Z,82.90
2022-11-14T07:31:12.300Z,74.90
2022-11-14T07:32:12.472Z,81.00
2022-11-14T07:33:12.649Z,76.10
2022-11-14T07:34:12.820Z,72.10
2022-11-14T07:35:13.031Z,74.30
2022-11-14T07:36:13.198Z,73.40
2022-11-14T07:37:13.370Z,77.10
2022-11-14T07:38:13.549Z,70.70
2022-11-14T07:39:13.719Z,78.50
2022-11-14T07:40:13.900Z,74.00
2022-11-14T07:41:14.093Z,75.20
2022-11-14T07:42:14.260Z,68.80
2022-11-14T07:43:14.488Z,73.20
2022-11-14T07:44:14.619Z,70.50
2022-11-14T07:45:14.792Z,75.30
2022-11-14T07:46:14.982Z,67.20
2022-11-14T07:47:15.148Z,73.80
2022-11-14T07:48:15.320Z,75.40
2022-11-14T07:49:15.497Z,71.80
2022-11-14T07:50:20.249Z,70.20
2022-11-14T07:51:16.867Z,77.00
2022-11-14T07:52:16.016Z,78.60
2022-11-14T07:53:16.180Z,67.10
2022-11-14T07:54:16.379Z,72.60
2022-11-14T07:55:16.528Z,72.50
2022-11-14T07:56:16.721Z,79.00
2022-11-14T07:57:16.891Z,63.90
2022-11-14T07:58:17.067Z,64.60
2022-11-14T07:59:17.248Z,70.80
2022-11-14T08:00:17.436Z,72.70
2022-11-14T08:01:17.696Z,67.20
2022-11-14T08:02:17.779Z,73.10
2022-11-14T08:03:17.961Z,72.60
2022-11-14T08:04:18.120Z,69.70
2022-11-14T08:05:18.306Z,73.10
2022-11-14T08:06:18.487Z,67.10
2022-11-14T08:07:18.681Z,68.30
2022-11-14T08:08:18.838Z,66.40
2022-11-14T08:09:19.016Z,68.60
2022-11-14T08:10:19.219Z,62.30
2022-11-14T08:11:31.684Z,67.70
2022-11-14T08:12:20.549Z,65.50
2022-11-14T08:13:35.115Z,67.50
2022-11-14T08:14:20.900Z,60.90
2022-11-14T08:15:20.077Z,63.40
2022-11-14T08:16:20.257Z,67.80
2022-11-14T08:17:20.438Z,61.10
2022-11-14T08:18:20.609Z,62.30
2022-11-14T08:19:20.778Z,57.50
2022-11-14T08:20:20.967Z,60.00
2022-11-14T08:21:21.147Z,62.40
2022-11-14T08:22:21.324Z,55.60
2022-11-14T08:23:21.496Z,59.10
2022-11-14T08:24:21.667Z,62.80
2022-11-14T08:25:21.844Z,57.50
2022-11-14T08:26:22.029Z,56.00
2022-11-14T08:27:22.256Z,58.70
2022-11-14T08:28:22.379Z,57.20
2022-11-14T08:29:22.549Z,60.70
2022-11-14T08:30:22.727Z,61.40
2022-11-14T08:31:22.914Z,58.60
2022-11-14T08:32:23.084Z,61.60
2022-11-14T08:33:23.287Z,56.20
2022-11-14T08:34:23.406Z,58.20
2022-11-14T08:35:23.583Z,58.40
2022-11-14T08:36:23.758Z,60.00
2022-11-14T08:37:23.927Z,54.50
2022-11-14T08:38:24.096Z,54.50
2022-11-14T08:39:24.270Z,54.20
2022-11-14T08:40:24.503Z,55.10
2022-11-14T08:41:24.628Z,53.60
2022-11-14T08:42:24.807Z,58.30
2022-11-14T08:43:24.981Z,57.90
2022-11-14T08:44:25.159Z,52.10
2022-11-14T08:45:25.331Z,52.20
2022-11-14T08:46:25.537Z,51.00
2022-11-14T08:47:25.676Z,57.40
2022-11-14T08:48:25.848Z,52.80
2022-11-14T08:49:26.018Z,50.90
2022-11-14T08:50:26.211Z,52.50
2022-11-14T08:51:26.377Z,50.50
2022-11-14T08:52:26.548Z,49.40
2022-11-14T08:53:26.731Z,52.40
2022-11-14T08:54:26.908Z,55.10
2022-11-14T08:55:27.102Z,48.80
2022-11-14T08:56:27.267Z,50.60
2022-11-14T08:57:27.438Z,50.50
2022-11-14T08:58:27.976Z,55.40
2022-11-14T08:59:27.776Z,48.70
2022-11-14T09:00:27.957Z,54.30
2022-11-14T09:01:28.129Z,50.70
2022-11-14T09:02:28.338Z,47.20
2022-11-14T09:03:28.535Z,55.60
2022-11-14T09:04:28.937Z,52.30
2022-11-14T09:05:28.857Z,59.70
2022-11-14T09:06:29.047Z,49.70
2022-11-14T09:07:29.308Z,49.30
2022-11-14T09:08:29.918Z,54.90
2022-11-14T09:09:29.537Z,53.10
2022-11-14T09:10:29.729Z,49.60
2022-11-14T09:11:29.896Z,53.20
2022-11-14T09:12:30.067Z,49.10
2022-11-14T09:13:30.552Z,48.80
2022-11-14T09:14:30.398Z,53.50
2022-11-14T09:15:30.606Z,51.60
2022-11-14T09:16:30.758Z,52.00
2022-11-14T09:17:30.918Z,56.50
2022-11-14T09:18:31.549Z,54.60
2022-11-14T09:19:31.278Z,50.10
2022-11-14T09:20:35.097Z,49.40
2022-11-14T09:21:32.620Z,50.90
2022-11-14T09:22:31.801Z,54.60
2022-11-14T09:23:32.478Z,54.60
2022-11-14T09:24:32.149Z,52.90
2022-11-14T09:25:32.358Z,56.70
2022-11-14T09:26:32.518Z,52.30
2022-11-14T09:27:32.679Z,53.00
2022-11-14T09:28:32.899Z,54.40
2022-11-14T09:29:33.031Z,56.90
2022-11-14T09:30:33.208Z,51.40
2022-11-14T09:31:33.434Z,55.90
2022-11-14T09:32:33.575Z,53.40
2022-11-14T09:33:33.779Z,55.50
2022-11-14T09:34:33.938Z,54.70
2022-11-14T09:35:34.158Z,57.90
2022-11-14T09:36:34.288Z,52.60
2022-11-14T09:37:34.458Z,56.20
2022-11-14T09:38:38.489Z,52.70
2022-11-14T09:39:34.827Z,58.00
2022-11-14T09:40:35.036Z,53.50
2022-11-14T09:41:35.158Z,53.00
2022-11-14T09:42:35.330Z,58.20
2022-11-14T09:43:35.499Z,57.20
2022-11-14T09:44:35.669Z,54.80
2022-11-14T09:45:35.858Z,55.40
2022-11-14T09:46:36.027Z,57.30
2022-11-14T09:47:36.197Z,52.00
2022-11-14T09:48:36.382Z,52.10
2022-11-14T09:49:36.559Z,54.40
2022-11-14T09:50:36.755Z,59.60
2022-11-14T09:51:36.928Z,52.70
2022-11-14T09:52:37.087Z,54.90
2022-11-14T09:53:37.271Z,52.90
2022-11-14T09:54:37.458Z,58.80
2022-11-14T09:55:37.703Z,52.00
2022-11-14T09:56:37.777Z,56.20
2022-11-14T09:57:37.948Z,54.70
2022-11-14T09:58:38.127Z,58.20
2022-11-14T09:59:38.308Z,53.80
2022-11-14T10:00:38.488Z,50.30
2022-11-14T10:01:38.731Z,53.10
2022-11-14T10:02:38.807Z,57.60
2022-11-14T10:03:38.979Z,52.70
2022-11-14T10:04:39.159Z,53.60
2022-11-14T10:05:39.435Z,56.10
2022-11-14T10:06:39.539Z,52.90
2022-11-14T10:07:39.688Z,51.60
2022-11-14T10:08:39.865Z,48.60
2022-11-14T10:09:40.041Z,51.60
2022-11-14T10:10:40.247Z,50.30
2022-11-14T10:11:40.397Z,49.40
2022-11-14T10:12:40.568Z,45.00
2022-11-14T10:13:40.737Z,47.30
2022-11-14T10:14:40.949Z,47.90
2022-11-14T10:15:41.097Z,46.30
2022-11-14T10:16:41.257Z,51.20
2022-11-14T10:17:41.435Z,46.20
2022-11-14T10:18:41.606Z,45.60
2022-11-14T10:19:42.980Z,45.60
2022-11-14T10:20:41.957Z,49.30
2022-11-14T10:21:42.149Z,45.50
2022-11-14T10:22:42.340Z,45.20
2022-11-14T10:23:42.509Z,40.90
2022-11-14T10:24:42.677Z,43.70
2022-11-14T10:25:44.389Z,41.50
2022-11-14T10:26:43.027Z,45.90
2022-11-14T10:27:43.219Z,46.40
2022-11-14T10:28:43.396Z,44.50
2022-11-14T10:29:43.622Z,42.80
2022-11-14T10:30:43.771Z,41.60
2022-11-14T10:31:43.949Z,41.20
2022-11-14T10:32:44.117Z,37.80
2022-11-14T10:33:44.296Z,44.40
2022-11-14T10:34:44.466Z,47.00
2022-11-14T10:35:44.660Z,43.10
2022-11-14T10:36:44.818Z,43.80
2022-11-14T10:37:44.998Z,39.00
2022-11-14T10:38:45.179Z,39.10
2022-11-14T10:39:45.337Z,40.60
2022-11-14T10:40:45.528Z,40.30
2022-11-14T10:42:06.225Z,39.20
2022-11-14T10:42:46.878Z,42.10
2022-11-14T10:43:46.055Z,42.90
2022-11-14T10:44:46.257Z,42.60
2022-11-14T10:45:46.397Z,46.30
2022-11-14T10:46:46.581Z,44.10
2022-11-14T10:47:46.755Z,43.60
2022-11-14T10:48:46.927Z,43.90
2022-11-14T10:49:47.107Z,45.30
2022-11-14T10:50:47.275Z,46.30
2022-11-14T10:51:47.463Z,41.70
2022-11-14T10:52:47.627Z,44.00
2022-11-14T10:53:47.808Z,44.70
2022-11-14T10:54:47.990Z,43.80
2022-11-14T10:56:03.747Z,41.90
2022-11-14T10:56:49.353Z,46.20
2022-11-14T10:57:48.528Z,42.40
2022-11-14T10:58:49.968Z,42.20
2022-11-14T10:59:48.865Z,38.90
2022-11-14T11:00:49.111Z,40.70
2022-11-14T11:01:49.239Z,42.90
2022-11-14T11:02:49.413Z,36.80
2022-11-14T11:03:49.639Z,41.80
2022-11-14T11:04:49.747Z,39.20
2022-11-14T11:05:49.945Z,38.10
2022-11-14T11:06:50.186Z,41.40
2022-11-14T11:07:50.286Z,36.40
2022-11-14T11:08:50.886Z,35.20
2022-11-14T11:09:50.652Z,34.70
2022-11-14T11:10:50.843Z,34.70
2022-11-14T11:11:50.987Z,33.30
2022-11-14T11:12:51.195Z,33.70
2022-11-14T11:13:51.337Z,37.80
2022-11-14T11:14:51.536Z,38.80
2022-11-14T11:15:51.717Z,35.80
2022-11-14T11:16:51.876Z,38.90
2022-11-14T11:17:52.047Z,35.80
2022-11-14T11:18:52.218Z,34.80
2022-11-14T11:19:52.406Z,31.50
2022-11-14T11:20:52.680Z,34.60
2022-11-14T11:21:52.948Z,34.70
2022-11-14T11:22:52.936Z,38.80
2022-11-14T11:23:53.117Z,35.00
2022-11-14T11:24:53.294Z,33.20
2022-11-14T11:25:53.515Z,34.20
2022-11-14T11:26:53.647Z,35.80
2022-11-14T11:27:53.818Z,33.70
2022-11-14T11:28:53.995Z,36.80
2022-11-14T11:29:54.202Z,30.30
2022-11-14T11:30:54.609Z,34.40
2022-11-14T11:31:54.505Z,34.60
2022-11-14T11:32:54.706Z,30.50
2022-11-14T11:33:54.866Z,35.50
2022-11-14T11:34:55.046Z,33.20
2022-11-14T11:35:55.217Z,34.10
2022-11-14T11:36:55.405Z,34.60
2022-11-14T11:37:55.565Z,36.10
2022-11-14T11:38:55.749Z,33.50
2022-11-14T11:39:55.915Z,39.20
2022-11-14T11:40:56.116Z,37.10
2022-11-14T11:42:11.711Z,32.80
2022-11-14T11:43:57.629Z,32.50
2022-11-14T11:44:56.799Z,33.70
2022-11-14T11:45:56.991Z,32.70
2022-11-14T11:46:57.146Z,34.40
2022-11-14T11:47:57.315Z,36.10
2022-11-14T11:48:57.495Z,31.80
2022-11-14T11:49:57.674Z,32.00
2022-11-14T11:50:57.857Z,35.10
2022-11-14T11:51:58.034Z,34.80
2022-11-14T11:52:58.205Z,33.10
2022-11-14T11:53:58.376Z,34.00
2022-11-14T11:54:58.555Z,33.60
2022-11-14T11:55:58.735Z,32.60
2022-11-14T11:56:58.943Z,31.20
2022-11-14T11:57:59.095Z,26.00
2022-11-14T11:58:59.255Z,31.10
2022-11-14T11:59:59.432Z,27.60
2022-11-14T12:00:59.622Z,24.90
2022-11-14T12:01:59.791Z,27.80
2022-11-14T12:03:00.173Z,31.30
2022-11-14T12:04:00.186Z,26.60
2022-11-14T12:05:00.316Z,31.40
2022-11-14T12:06:00.504Z,30.40
2022-11-14T12:07:00.702Z,29.50
2022-11-14T12:08:00.850Z,29.50
2022-11-14T12:09:01.022Z,30.90
2022-11-14T12:10:10.191Z,27.20
2022-11-14T12:11:02.376Z,31.50
2022-11-14T12:12:01.535Z,29.70
2022-11-14T12:13:01.722Z,31.50
2022-11-14T12:14:01.885Z,29.10
2022-11-14T12:15:02.084Z,31.50
2022-11-14T12:16:02.275Z,28.30
2022-11-14T12:17:02.442Z,29.40
2022-11-14T12:18:02.611Z,29.90
2022-11-14T12:19:02.797Z,31.30
2022-11-14T12:20:02.979Z,34.30
2022-11-14T12:21:03.167Z,30.70
2022-11-14T12:22:03.341Z,29.40
2022-11-14T12:23:03.506Z,33.90
2022-11-14T12:24:03.675Z,30.50
2022-11-14T12:25:03.872Z,29.60
2022-11-14T12:26:04.035Z,29.60
2022-11-14T12:27:04.196Z,31.50
2022-11-14T12:28:04.488Z,32.40
2022-11-14T12:29:04.554Z,33.60
2022-11-14T12:30:04.728Z,29.00
2022-11-14T12:31:04.923Z,29.00
2022-11-14T12:32:05.102Z,25.80
2022-11-14T12:33:05.261Z,27.80
2022-11-14T12:34:05.429Z,28.40
2022-11-14T12:35:05.674Z,28.50
2022-11-14T12:36:05.798Z,26.30
2022-11-14T12:37:06.001Z,26.50
2022-11-14T12:38:06.148Z,25.80
2022-11-14T12:39:06.328Z,29.10
2022-11-14T12:40:06.495Z,29.60
2022-11-14T12:41:06.702Z,27.80
2022-11-14T12:42:06.842Z,31.30
2022-11-14T12:43:07.016Z,25.70
2022-11-14T12:44:07.229Z,28.70
2022-11-14T12:45:07.356Z,28.80
2022-11-14T12:46:07.549Z,29.20
2022-11-14T12:47:07.716Z,25.80
2022-11-14T12:48:07.886Z,25.50
2022-11-14T12:49:08.055Z,24.90
2022-11-14T12:50:08.234Z,26.50
2022-11-14T12:51:08.476Z,28.20
2022-11-14T12:52:08.576Z,27.40
2022-11-14T12:53:08.755Z,28.10
2022-11-14T12:54:08.947Z,26.30
2022-11-14T12:55:09.115Z,26.60
2022-11-14T12:56:09.316Z,28.00